• Join FlightAware (Why Join?)
  • Login
  • US Flag 
10:44PM EDT


 

Airport Tracker/Info


-or-


 

Live Flight TrackerFlight Track Log ✈ RPA3159 ✈ 04-Jul-2013 ✈ KBTV - KPHL

Flight Track Log - Related Links

Times and Time Zones

All times are in EDT time to prevent confusion due to time zone crossing. See the RPA3159 flight status page for this flight to view local times or setup timezone preferences in your user account.

Time Position Orientation Groundspeed Altitude Reporting Facility
EDT Latitude Longitude Course Direction KTS MPH feet Rate Location/Type
11:27AM 44.4175 -73.1406 195° South 200 230 2,700  Level Boston Center
11:28AM 44.3508 -73.1658 195° South 231 266 5,100 2,820 Climbing Boston Center
11:29AM 44.1127 -73.2828 195° South  Level FlightAware Approximate
11:29AM 44.2839 -73.2056 203° Southwest 263 303 8,400  Level Boston Center
11:30AM 44.0234 -73.3144 194° South  Level FlightAware Approximate
11:30AM 44.2167 -73.2656 213° Southwest 281 323 11,000  Level Boston Center
11:31AM 43.9339 -73.3443 193° South  Level FlightAware Approximate
11:31AM 44.1453 -73.3283 212° Southwest 304 350 13,400  Level Boston Center
11:32AM 43.8449 -73.3770 195° South  Level FlightAware Approximate
11:32AM 44.0719 -73.3908 211° Southwest 309 356 15,900  Level Boston Center
11:33AM 43.9942 -73.4558 211° Southwest 327 376 17,900 2,040 Climbing Boston Center
11:34AM 43.9186 -73.5239 213° Southwest 327 376 20,000 1,920 Climbing Boston Center
11:35AM 43.8389 -73.5886 210° Southwest 327 376 21,800 960 Climbing Boston Center
11:36AM 43.7569 -73.6617 213° Southwest 339 390 22,000 60 Climbing Boston Center
11:37AM 43.6769 -73.7289 211° Southwest 344 396 22,000  Level Boston Center
11:38AM 43.6033 -73.7875 210° Southwest 344 396 22,000  Level Boston Center
11:39AM 43.5192 -73.8572 211° Southwest 344 396 22,000  Level Boston Center
11:40AM 43.4369 -73.9242 211° Southwest 344 396 22,000  Level Boston Center
11:41AM 43.3483 -74.0019 213° Southwest 344 396 22,000  Level Boston Center
11:42AM 43.2661 -74.0711 211° Southwest 344 396 22,000  Level Boston Center
11:43AM 43.1858 -74.1400 212° Southwest 344 396 22,000  Level Boston Center
11:44AM 43.1014 -74.2089 211° Southwest 344 396 22,000  Level Boston Center
11:45AM 43.0169 -74.2775 211° Southwest 349 402 22,000  Level Boston Center
11:46AM 42.9347 -74.3458 211° Southwest 349 402 22,000  Level Boston Center
11:47AM 42.8500 -74.4142 211° Southwest 349 402 22,000  Level Boston Center
11:48AM 42.7697 -74.4822 212° Southwest 349 402 22,000  Level Boston Center
11:49AM 42.6850 -74.5500 210° Southwest 349 402 22,000  Level Boston Center
11:50AM 42.6025 -74.6206 212° Southwest 354 407 22,000  Level Boston Center
11:51AM 42.5200 -74.6881 211° Southwest 354 407 22,000 -300 Level Boston Center
11:52AM 42.4353 -74.7553 210° Southwest 354 407 21,500 -720 Descending Boston Center
11:53AM 42.3525 -74.8197 210° Southwest 354 407 20,600 -900 Descending Boston Center
11:55AM 42.2128 -74.9314 211° Southwest 340 391 19,100 -600 Descending New York Center
11:56AM 42.1400 -74.9883 210° Southwest 340 391 19,000 -60 Descending New York Center
11:57AM 42.0606 -75.0558 212° Southwest 340 391 19,000  Level New York Center
11:58AM 41.9811 -75.1233 212° Southwest 345 397 19,000  Level New York Center
11:59AM 41.8931 -75.1956 211° Southwest 345 397 19,000  Level New York Center
12:00PM 41.8136 -75.2569 210° Southwest 345 397 19,000 -360 Level New York Center
12:01PM 41.7342 -75.3211 211° Southwest 345 397 18,400 -1,080 Descending New York Center
12:02PM 41.6631 -75.3803 212° Southwest 345 397 16,900 -1,860 Descending New York Center
12:03PM 41.5794 -75.4464 211° Southwest 332 382 14,700 -1,920 Descending New York Center
12:04PM 41.5061 -75.5050 211° Southwest 332 382 13,100 -1,380 Descending New York Center
12:05PM 41.4331 -75.5636 211° Southwest 324 373 12,000 -600 Descending New York Center
12:06PM 41.3664 -75.6169 211° Southwest 319 367 12,000  Level New York Center
12:07PM 41.2933 -75.6722 210° Southwest 319 367 12,000  Level New York Center
12:08PM 41.2114 -75.6883 188° South 301 346 12,000  Level New York Center
12:09PM 41.1156 -75.6897 181° South 311 358 12,000  Level New York Center
12:10PM 41.0325 -75.6783 174° South 316 364 12,000  Level New York Center
12:11PM 40.9464 -75.6444 163° South 316 364 12,000  Level New York Center
12:12PM 40.8686 -75.6117 162° South 316 364 12,000  Level New York Center
12:13PM 40.7867 -75.5756 162° South 316 364 12,000  Level New York Center
12:14PM 40.6989 -75.5367 161° South 322 371 12,000  Level New York Center
12:15PM 40.6147 -75.5033 163° South 322 371 12,000 -300 Level New York Center
12:16PM 40.5306 -75.4675 162° South 322 371 11,400 -1,020 Descending New York Center
12:17PM 40.4447 -75.4289 161° South 311 358 10,000 -1,320 Descending New York Center
12:18PM 40.3733 -75.3886 157° South 293 337 8,800 -1,440 Descending New York Center
12:19PM 40.3019 -75.3458 155° Southeast 282 325 7,200 -1,440 Descending New York Center
12:20PM 40.2411 -75.3064 154° Southeast 277 319 6,000 -660 Descending New York Center
12:21PM 40.1833 -75.2375 138° Southeast 282 325 6,000  Level New York Center
12:22PM 40.1239 -75.1522 132° Southeast 282 325 6,000  Level New York Center
12:23PM 40.0833 -75.0833 128° Southeast 240 276 6,000  Level Philadelphia TRACON
12:24PM 40.0500 -75.0167 123° Southeast 240 276 6,000 -60 Level Philadelphia TRACON
12:24PM 40.0500 -74.9500 90° East 229 264 5,900 -540 Descending Philadelphia TRACON
12:25PM 40.0667 -74.8667 75° East 224 258 5,000 -840 Descending Philadelphia TRACON
12:27PM 40.0167 -74.8333 153° Southeast 163 188 4,100 -480 Descending Philadelphia TRACON
12:28PM 40.0000 -74.8833 246° West 162 186 4,000 -300 Descending Philadelphia TRACON
12:29PM 39.9667 -74.9167 217° Southwest 161 185 3,500 -540 Descending Philadelphia TRACON
12:30PM 39.9333 -74.9667 229° Southwest 161 185 3,000 -300 Descending Philadelphia TRACON
12:30PM 39.9167 -75.0000 237° Southwest 163 188 3,000 -300 Level Philadelphia TRACON
12:32PM 39.9000 -75.0667 252° West 164 189 2,400 -600 Descending Philadelphia TRACON